sensor_id;sensor_type;location;lat;lon;timestamp;pressure;altitude;pressure_sealevel;temperature;humidity
10476;BME280;26166;48.264;11.436;2023-03-03T00:02:41;96256.34;;;9.38;46.84
10476;BME280;26166;48.264;11.436;2023-03-03T00:05:41;96258.34;;;9.36;46.86
10476;BME280;26166;48.264;11.436;2023-03-03T00:08:41;96260.78;;;9.38;46.75
10476;BME280;26166;48.264;11.436;2023-03-03T00:11:42;96253.09;;;9.36;47.06
10476;BME280;26166;48.264;11.436;2023-03-03T00:14:42;96256.34;;;9.38;46.67
10476;BME280;26166;48.264;11.436;2023-03-03T00:17:42;96251.97;;;9.39;46.79
10476;BME280;26166;48.264;11.436;2023-03-03T00:20:45;96249.34;;;9.39;46.71
10476;BME280;26166;48.264;11.436;2023-03-03T00:23:46;96252.91;;;9.38;46.53
10476;BME280;26166;48.264;11.436;2023-03-03T00:29:48;96250.28;;;9.38;46.61
10476;BME280;26166;48.264;11.436;2023-03-03T00:32:51;96249.47;;;9.37;46.57
10476;BME280;26166;48.264;11.436;2023-03-03T00:35:52;96258.16;;;9.38;46.57
10476;BME280;26166;48.264;11.436;2023-03-03T00:38:52;96255.53;;;9.38;46.59
10476;BME280;26166;48.264;11.436;2023-03-03T00:41:52;96258.84;;;9.40;46.43
10476;BME280;26166;48.264;11.436;2023-03-03T00:44:56;96257.22;;;9.39;46.43
10476;BME280;26166;48.264;11.436;2023-03-03T00:47:57;96256.22;;;9.40;46.38
10476;BME280;26166;48.264;11.436;2023-03-03T00:50:58;96259.97;;;9.37;46.41
10476;BME280;26166;48.264;11.436;2023-03-03T00:53:59;96260.94;;;9.36;46.57
10476;BME280;26166;48.264;11.436;2023-03-03T00:56:59;96259.16;;;9.37;46.53
10476;BME280;26166;48.264;11.436;2023-03-03T00:59:59;96263.88;;;9.33;46.52
10476;BME280;26166;48.264;11.436;2023-03-03T01:03:01;96259.78;;;9.30;46.45
10476;BME280;26166;48.264;11.436;2023-03-03T01:06:01;96260.75;;;9.29;46.43
10476;BME280;26166;48.264;11.436;2023-03-03T01:09:01;96264.22;;;9.30;46.57
10476;BME280;26166;48.264;11.436;2023-03-03T01:12:02;96260.75;;;9.29;46.65
10476;BME280;26166;48.264;11.436;2023-03-03T01:15:02;96266.66;;;9.31;46.34
10476;BME280;26166;48.264;11.436;2023-03-03T01:18:02;96257.66;;;9.34;46.42
10476;BME280;26166;48.264;11.436;2023-03-03T01:21:03;96253.91;;;9.37;46.35
10476;BME280;26166;48.264;11.436;2023-03-03T01:24:04;96258.34;;;9.36;46.38
10476;BME280;26166;48.264;11.436;2023-03-03T01:27:04;96251.59;;;9.33;46.42
10476;BME280;26166;48.264;11.436;2023-03-03T01:30:05;96248.00;;;9.34;46.49
10476;BME280;26166;48.264;11.436;2023-03-03T01:33:06;96252.91;;;9.38;46.35
10476;BME280;26166;48.264;11.436;2023-03-03T01:36:06;96251.13;;;9.38;46.36
10476;BME280;26166;48.264;11.436;2023-03-03T01:39:06;96252.78;;;9.39;46.02
10476;BME280;26166;48.264;11.436;2023-03-03T01:42:07;96247.53;;;9.39;45.80
10476;BME280;26166;48.264;11.436;2023-03-03T01:51:19;96241.09;;;9.33;46.19
10476;BME280;26166;48.264;11.436;2023-03-03T01:54:22;96245.41;;;9.34;46.17
10476;BME280;26166;48.264;11.436;2023-03-03T01:57:28;96242.78;;;9.34;46.29
10476;BME280;26166;48.264;11.436;2023-03-03T02:00:31;96247.34;;;9.32;46.33
10476;BME280;26166;48.264;11.436;2023-03-03T02:03:32;96248.97;;;9.33;46.07
10476;BME280;26166;48.264;11.436;2023-03-03T02:06:34;96244.72;;;9.32;46.39
10476;BME280;26166;48.264;11.436;2023-03-03T02:09:40;96244.72;;;9.32;46.02
10476;BME280;26166;48.264;11.436;2023-03-03T02:12:44;96251.75;;;9.32;46.21
10476;BME280;26166;48.264;11.436;2023-03-03T02:15:45;96257.00;;;9.32;46.33
10476;BME280;26166;48.264;11.436;2023-03-03T02:18:45;96250.94;;;9.31;46.25
10476;BME280;26166;48.264;11.436;2023-03-03T02:21:45;96259.63;;;9.32;46.08
10476;BME280;26166;48.264;11.436;2023-03-03T02:24:50;96238.81;;;9.30;46.17
10476;BME280;26166;48.264;11.436;2023-03-03T02:27:52;96233.59;;;9.30;46.01
10476;BME280;26166;48.264;11.436;2023-03-03T02:30:56;96237.16;;;9.29;46.14
10476;BME280;26166;48.264;11.436;2023-03-03T02:33:56;96233.59;;;9.30;46.03
10476;BME280;26166;48.264;11.436;2023-03-03T02:36:57;96234.53;;;9.29;45.94
10476;BME280;26166;48.264;11.436;2023-03-03T02:39:57;96231.91;;;9.29;46.28
10476;BME280;26166;48.264;11.436;2023-03-03T02:42:57;96235.22;;;9.31;45.79
10476;BME280;26166;48.264;11.436;2023-03-03T02:45:59;96237.16;;;9.29;45.96
10476;BME280;26166;48.264;11.436;2023-03-03T02:48:59;96231.59;;;9.32;45.96
10476;BME280;26166;48.264;11.436;2023-03-03T02:52:00;96230.78;;;9.32;45.84
10476;BME280;26166;48.264;11.436;2023-03-03T02:55:01;96236.84;;;9.32;45.89
10476;BME280;26166;48.264;11.436;2023-03-03T02:58:01;96240.28;;;9.33;45.90
10476;BME280;26166;48.264;11.436;2023-03-03T03:01:01;96247.34;;;9.32;45.84
10476;BME280;26166;48.264;11.436;2023-03-03T03:04:23;96242.09;;;9.32;45.96
10476;BME280;26166;48.264;11.436;2023-03-03T03:07:22;96236.03;;;9.32;45.72
10476;BME280;26166;48.264;11.436;2023-03-03T03:10:22;96241.09;;;9.33;45.81
10476;BME280;26166;48.264;11.436;2023-03-03T03:13:23;96239.31;;;9.34;45.77
10476;BME280;26166;48.264;11.436;2023-03-03T03:16:23;96245.06;;;9.38;45.82
10476;BME280;26166;48.264;11.436;2023-03-03T03:19:23;96244.09;;;9.39;45.69
10476;BME280;26166;48.264;11.436;2023-03-03T03:22:24;96238.19;;;9.37;45.67
10476;BME280;26166;48.264;11.436;2023-03-03T03:25:24;96241.63;;;9.37;45.91
10476;BME280;26166;48.264;11.436;2023-03-03T03:28:24;96238.19;;;9.37;45.66
10476;BME280;26166;48.264;11.436;2023-03-03T03:31:24;96239.00;;;9.37;45.92
10476;BME280;26166;48.264;11.436;2023-03-03T03:34:25;96241.47;;;9.39;45.75
10476;BME280;26166;48.264;11.436;2023-03-03T03:37:25;96235.88;;;9.42;45.72
10476;BME280;26166;48.264;11.436;2023-03-03T03:40:25;96237.69;;;9.41;45.80
10476;BME280;26166;48.264;11.436;2023-03-03T03:43:26;96242.13;;;9.41;45.85
10476;BME280;26166;48.264;11.436;2023-03-03T03:46:26;96242.28;;;9.39;45.84
10476;BME280;26166;48.264;11.436;2023-03-03T03:49:26;96243.13;;;9.40;45.82
10476;BME280;26166;48.264;11.436;2023-03-03T03:52:27;96247.53;;;9.39;45.80
10476;BME280;26166;48.264;11.436;2023-03-03T03:55:27;96248.34;;;9.40;45.95
10476;BME280;26166;48.264;11.436;2023-03-03T03:58:27;96243.94;;;9.40;45.96
10476;BME280;26166;48.264;11.436;2023-03-03T04:01:27;96256.88;;;9.42;45.99
10476;BME280;26166;48.264;11.436;2023-03-03T04:04:27;96256.72;;;9.43;46.08
10476;BME280;26166;48.264;11.436;2023-03-03T04:07:28;96257.53;;;9.44;46.14
10476;BME280;26166;48.264;11.436;2023-03-03T04:10:28;96257.19;;;9.47;45.92
10476;BME280;26166;48.264;11.436;2023-03-03T04:13:28;96252.13;;;9.45;45.82
10476;BME280;26166;48.264;11.436;2023-03-03T04:16:30;96248.69;;;9.45;46.04
10476;BME280;26166;48.264;11.436;2023-03-03T04:19:31;96252.13;;;9.45;46.21
10476;BME280;26166;48.264;11.436;2023-03-03T04:22:31;96254.09;;;9.43;46.14
10476;BME280;26166;48.264;11.436;2023-03-03T04:25:35;96249.69;;;9.44;46.09
10476;BME280;26166;48.264;11.436;2023-03-03T04:28:35;96246.88;;;9.45;46.06
10476;BME280;26166;48.264;11.436;2023-03-03T04:31:36;96246.03;;;9.37;46.44
10476;BME280;26166;48.264;11.436;2023-03-03T04:34:36;96239.44;;;9.24;46.53
10476;BME280;26166;48.264;11.436;2023-03-03T04:37:36;96245.03;;;9.21;46.91
10476;BME280;26166;48.264;11.436;2023-03-03T04:40:39;96239.44;;;9.24;46.87
10476;BME280;26166;48.264;11.436;2023-03-03T04:43:39;96247.97;;;9.26;46.92
10476;BME280;26166;48.264;11.436;2023-03-03T04:46:39;96240.78;;;9.28;46.68
10476;BME280;26166;48.264;11.436;2023-03-03T04:49:39;96237.16;;;9.29;46.78
10476;BME280;26166;48.264;11.436;2023-03-03T04:52:40;96241.75;;;9.27;47.06
10476;BME280;26166;48.264;11.436;2023-03-03T04:55:40;96242.75;;;9.26;46.90
10476;BME280;26166;48.264;11.436;2023-03-03T04:58:41;96234.72;;;9.28;46.91
10476;BME280;26166;48.264;11.436;2023-03-03T05:01:41;96242.41;;;9.29;46.92
10476;BME280;26166;48.264;11.436;2023-03-03T05:04:41;96238.66;;;9.32;47.07
10476;BME280;26166;48.264;11.436;2023-03-03T05:07:41;96241.28;;;9.32;46.78
10476;BME280;26166;48.264;11.436;2023-03-03T05:10:42;96243.72;;;9.33;46.83
10476;BME280;26166;48.264;11.436;2023-03-03T05:13:42;96242.78;;;9.34;46.85
10476;BME280;26166;48.264;11.436;2023-03-03T05:16:42;96243.59;;;9.35;46.95
10476;BME280;26166;48.264;11.436;2023-03-03T05:19:43;96250.63;;;9.34;46.91
10476;BME280;26166;48.264;11.436;2023-03-03T05:22:43;96248.00;;;9.34;47.08
10476;BME280;26166;48.264;11.436;2023-03-03T05:25:43;96248.66;;;9.37;46.86
10476;BME280;26166;48.264;11.436;2023-03-03T05:28:44;96253.91;;;9.37;47.12
10476;BME280;26166;48.264;11.436;2023-03-03T05:31:44;96255.88;;;9.34;47.03
10476;BME280;26166;48.264;11.436;2023-03-03T05:34:45;96254.91;;;9.35;47.00
10476;BME280;26166;48.264;11.436;2023-03-03T05:37:45;96249.78;;;9.34;47.17
10476;BME280;26166;48.264;11.436;2023-03-03T05:40:46;96258.50;;;9.34;47.00
10476;BME280;26166;48.264;11.436;2023-03-03T05:43:46;96265.69;;;9.32;47.12
10476;BME280;26166;48.264;11.436;2023-03-03T05:46:47;96268.31;;;9.32;47.28
10476;BME280;26166;48.264;11.436;2023-03-03T05:49:47;96269.94;;;9.33;47.16
10476;BME280;26166;48.264;11.436;2023-03-03T05:52:48;96272.56;;;9.33;47.15
10476;BME280;26166;48.264;11.436;2023-03-03T05:55:49;96274.06;;;9.36;47.23
10476;BME280;26166;48.264;11.436;2023-03-03T06:02:48;96275.53;;;9.30;47.34
10476;BME280;26166;48.264;11.436;2023-03-03T06:09:31;96286.31;;;9.27;47.33
10476;BME280;26166;48.264;11.436;2023-03-03T06:12:43;96292.06;;;9.31;47.50
10476;BME280;26166;48.264;11.436;2023-03-03T06:15:46;96291.72;;;9.34;47.25
10476;BME280;26166;48.264;11.436;2023-03-03T06:18:47;96298.13;;;9.31;47.43
10476;BME280;26166;48.264;11.436;2023-03-03T06:21:47;96299.25;;;9.29;47.58
10476;BME280;26166;48.264;11.436;2023-03-03T06:24:51;96306.28;;;9.28;47.48
10476;BME280;26166;48.264;11.436;2023-03-03T06:27:52;96306.97;;;9.30;47.36
10476;BME280;26166;48.264;11.436;2023-03-03T06:30:53;96307.78;;;9.31;47.47
10476;BME280;26166;48.264;11.436;2023-03-03T06:34:15;96301.75;;;9.30;47.70
10476;BME280;26166;48.264;11.436;2023-03-03T06:37:20;96303.38;;;9.31;47.59
10476;BME280;26166;48.264;11.436;2023-03-03T06:40:20;96300.06;;;9.29;47.65
10476;BME280;26166;48.264;11.436;2023-03-03T06:43:20;96305.31;;;9.29;47.75
10476;BME280;26166;48.264;11.436;2023-03-03T06:46:22;96305.13;;;9.23;47.93
10476;BME280;26166;48.264;11.436;2023-03-03T06:49:23;96311.00;;;9.17;48.26
10476;BME280;26166;48.264;11.436;2023-03-03T06:52:24;96313.63;;;9.17;48.15
10476;BME280;26166;48.264;11.436;2023-03-03T06:55:25;96313.47;;;9.18;48.05
10476;BME280;26166;48.264;11.436;2023-03-03T06:58:25;96321.97;;;9.20;47.74
10476;BME280;26166;48.264;11.436;2023-03-03T07:01:29;96322.66;;;9.22;47.91
10476;BME280;26166;48.264;11.436;2023-03-03T07:04:32;96331.03;;;9.26;47.81
10476;BME280;26166;48.264;11.436;2023-03-03T07:07:33;96334.47;;;9.26;47.88
10476;BME280;26166;48.264;11.436;2023-03-03T07:10:33;96331.88;;;9.26;47.79
10476;BME280;26166;48.264;11.436;2023-03-03T07:13:33;96325.63;;;9.27;47.87
10476;BME280;26166;48.264;11.436;2023-03-03T07:16:36;96333.50;;;9.27;47.75
10476;BME280;26166;48.264;11.436;2023-03-03T07:19:36;96333.66;;;9.26;48.03
10476;BME280;26166;48.264;11.436;2023-03-03T07:22:36;96334.47;;;9.26;47.67
10476;BME280;26166;48.264;11.436;2023-03-03T07:25:37;96339.72;;;9.26;48.05
10476;BME280;26166;48.264;11.436;2023-03-03T07:28:38;96344.28;;;9.24;48.21
10476;BME280;26166;48.264;11.436;2023-03-03T07:31:40;96354.78;;;9.24;48.15
10476;BME280;26166;48.264;11.436;2023-03-03T07:34:43;96343.34;;;9.25;48.03
10476;BME280;26166;48.264;11.436;2023-03-03T07:37:45;96348.41;;;9.27;48.21
10476;BME280;26166;48.264;11.436;2023-03-03T07:40:47;96346.91;;;9.24;48.25
10476;BME280;26166;48.264;11.436;2023-03-03T07:43:49;96351.50;;;9.22;48.40
10476;BME280;26166;48.264;11.436;2023-03-03T07:46:53;96351.50;;;9.22;48.32
10476;BME280;26166;48.264;11.436;2023-03-03T07:49:54;96348.06;;;9.22;48.29
10476;BME280;26166;48.264;11.436;2023-03-03T07:52:58;96356.44;;;9.25;48.21
10476;BME280;26166;48.264;11.436;2023-03-03T07:55:59;96356.75;;;9.22;48.31
10476;BME280;26166;48.264;11.436;2023-03-03T07:59:01;96359.34;;;9.22;48.56
10476;BME280;26166;48.264;11.436;2023-03-03T08:02:01;96361.97;;;9.22;48.56
10476;BME280;26166;48.264;11.436;2023-03-03T08:05:23;96372.47;;;9.22;48.54
10476;BME280;26166;48.264;11.436;2023-03-03T08:08:26;96375.09;;;9.22;48.62
10476;BME280;26166;48.264;11.436;2023-03-03T08:11:30;96368.03;;;9.23;48.67
10476;BME280;26166;48.264;11.436;2023-03-03T08:14:33;96368.03;;;9.23;48.66
10476;BME280;26166;48.264;11.436;2023-03-03T08:17:34;96364.59;;;9.22;48.62
10476;BME280;26166;48.264;11.436;2023-03-03T08:23:48;96382.94;;;9.22;48.83
10476;BME280;26166;48.264;11.436;2023-03-03T08:26:50;96382.78;;;9.24;48.48
10476;BME280;26166;48.264;11.436;2023-03-03T08:29:50;96381.78;;;9.25;48.64
10476;BME280;26166;48.264;11.436;2023-03-03T08:32:50;96381.78;;;9.25;48.54
10476;BME280;26166;48.264;11.436;2023-03-03T08:35:51;96374.78;;;9.25;48.58
10476;BME280;26166;48.264;11.436;2023-03-03T08:38:51;96379.03;;;9.26;48.74
10476;BME280;26166;48.264;11.436;2023-03-03T08:41:51;96388.72;;;9.26;48.62
10476;BME280;26166;48.264;11.436;2023-03-03T08:44:51;96383.59;;;9.24;48.82
10476;BME280;26166;48.264;11.436;2023-03-03T08:47:52;96389.19;;;9.29;48.75
10476;BME280;26166;48.264;11.436;2023-03-03T08:50:52;96387.56;;;9.28;48.87
10476;BME280;26166;48.264;11.436;2023-03-03T08:53:52;96386.22;;;9.24;49.08
10476;BME280;26166;48.264;11.436;2023-03-03T08:56:52;96395.88;;;9.24;48.88
10476;BME280;26166;48.264;11.436;2023-03-03T08:59:56;96394.78;;;9.26;48.90
10476;BME280;26166;48.264;11.436;2023-03-03T09:02:56;96400.00;;;9.26;49.09
10476;BME280;26166;48.264;11.436;2023-03-03T09:05:58;96403.63;;;9.25;49.10
10476;BME280;26166;48.264;11.436;2023-03-03T09:09:00;96397.22;;;9.28;48.81
10476;BME280;26166;48.264;11.436;2023-03-03T09:12:02;96404.28;;;9.27;48.83
10476;BME280;26166;48.264;11.436;2023-03-03T09:15:14;96401.34;;;9.30;48.91
10476;BME280;26166;48.264;11.436;2023-03-03T09:18:31;96404.63;;;9.32;48.84
10476;BME280;26166;48.264;11.436;2023-03-03T09:21:34;96403.81;;;9.32;48.86
10476;BME280;26166;48.264;11.436;2023-03-03T09:24:34;96409.25;;;9.39;48.60
10476;BME280;26166;48.264;11.436;2023-03-03T09:27:35;96405.78;;;9.38;48.73
10476;BME280;26166;48.264;11.436;2023-03-03T09:30:37;96410.72;;;9.41;48.73
10476;BME280;26166;48.264;11.436;2023-03-03T09:36:41;96416.16;;;9.40;48.72
10476;BME280;26166;48.264;11.436;2023-03-03T09:39:41;96421.38;;;9.40;48.86
10476;BME280;26166;48.264;11.436;2023-03-03T09:42:51;96414.50;;;9.39;48.86
10476;BME280;26166;48.264;11.436;2023-03-03T09:45:58;96416.16;;;9.40;49.00
10476;BME280;26166;48.264;11.436;2023-03-03T09:49:14;96426.63;;;9.40;48.87
10476;BME280;26166;48.264;11.436;2023-03-03T10:07:48;96436.09;;;9.32;49.38
10476;BME280;26166;48.264;11.436;2023-03-03T10:24:02;96439.88;;;9.38;49.35
10476;BME280;26166;48.264;11.436;2023-03-03T10:33:45;96432.47;;;9.33;49.69
10476;BME280;26166;48.264;11.436;2023-03-03T10:36:52;96447.38;;;9.33;49.65
10476;BME280;26166;48.264;11.436;2023-03-03T10:40:00;96434.16;;;9.34;49.55
10476;BME280;26166;48.264;11.436;2023-03-03T10:46:08;96440.56;;;9.40;49.60
10476;BME280;26166;48.264;11.436;2023-03-03T11:01:42;96444.69;;;9.51;49.59
10476;BME280;26166;48.264;11.436;2023-03-03T11:07:55;96449.94;;;9.51;49.48
10476;BME280;26166;48.264;11.436;2023-03-03T11:11:13;96461.25;;;9.51;49.36
10476;BME280;26166;48.264;11.436;2023-03-03T11:17:26;96451.63;;;9.52;49.39
10476;BME280;26166;48.264;11.436;2023-03-03T11:20:50;96447.03;;;9.54;49.53
10476;BME280;26166;48.264;11.436;2023-03-03T11:23:57;96438.50;;;9.52;49.72
10476;BME280;26166;48.264;11.436;2023-03-03T11:27:19;96432.59;;;9.50;49.70
10476;BME280;26166;48.264;11.436;2023-03-03T11:36:38;96438.66;;;9.50;49.89
10476;BME280;26166;48.264;11.436;2023-03-03T11:39:40;96432.59;;;9.50;49.85
10476;BME280;26166;48.264;11.436;2023-03-03T11:42:50;96428.97;;;9.51;49.95
10476;BME280;26166;48.264;11.436;2023-03-03T11:45:54;96427.84;;;9.53;49.81
10476;BME280;26166;48.264;11.436;2023-03-03T11:49:00;96429.19;;;9.57;49.91
10476;BME280;26166;48.264;11.436;2023-03-03T11:55:40;96416.59;;;9.61;49.68
10476;BME280;26166;48.264;11.436;2023-03-03T11:58:38;96409.22;;;9.65;50.05
10476;BME280;26166;48.264;11.436;2023-03-03T12:01:44;96413.31;;;9.67;49.74
10476;BME280;26166;48.264;11.436;2023-03-03T12:04:53;96414.97;;;9.68;49.81
10476;BME280;26166;48.264;11.436;2023-03-03T12:11:06;96406.97;;;9.70;49.82
10476;BME280;26166;48.264;11.436;2023-03-03T12:21:06;96413.66;;;9.72;49.91
10476;BME280;26166;48.264;11.436;2023-03-03T12:24:57;96411.06;;;9.72;49.94
10476;BME280;26166;48.264;11.436;2023-03-03T12:37:27;96401.72;;;9.78;50.37
10476;BME280;26166;48.264;11.436;2023-03-03T12:40:32;96402.72;;;9.77;50.11
10476;BME280;26166;48.264;11.436;2023-03-03T12:53:21;96388.13;;;9.74;50.28
10476;BME280;26166;48.264;11.436;2023-03-03T12:56:33;96388.44;;;9.71;50.52
10476;BME280;26166;48.264;11.436;2023-03-03T12:59:48;96387.44;;;9.72;50.17
10476;BME280;26166;48.264;11.436;2023-03-03T13:06:06;96399.56;;;9.73;50.36
10476;BME280;26166;48.264;11.436;2023-03-03T13:09:39;96395.00;;;9.75;50.67
10476;BME280;26166;48.264;11.436;2023-03-03T13:16:11;96372.53;;;9.73;50.82
10476;BME280;26166;48.264;11.436;2023-03-03T13:19:14;96378.59;;;9.73;50.31
10476;BME280;26166;48.264;11.436;2023-03-03T13:22:17;96384.66;;;9.74;50.51
10476;BME280;26166;48.264;11.436;2023-03-03T13:25:43;96381.06;;;9.75;50.56
10476;BME280;26166;48.264;11.436;2023-03-03T13:31:58;96371.69;;;9.72;50.79
10476;BME280;26166;48.264;11.436;2023-03-03T13:35:08;96367.28;;;9.73;50.64
10476;BME280;26166;48.264;11.436;2023-03-03T13:38:18;96365.47;;;9.73;50.58
10476;BME280;26166;48.264;11.436;2023-03-03T13:41:23;96367.44;;;9.71;50.73
10476;BME280;26166;48.264;11.436;2023-03-03T13:44:33;96359.41;;;9.73;51.28
10476;BME280;26166;48.264;11.436;2023-03-03T13:50:50;96359.41;;;9.73;51.10
10476;BME280;26166;48.264;11.436;2023-03-03T13:53:53;96358.59;;;9.72;51.03
10476;BME280;26166;48.264;11.436;2023-03-03T13:57:03;96354.97;;;9.73;50.93
10476;BME280;26166;48.264;11.436;2023-03-03T14:03:40;96347.28;;;9.72;51.36
10476;BME280;26166;48.264;11.436;2023-03-03T14:06:47;96344.47;;;9.73;51.27
10476;BME280;26166;48.264;11.436;2023-03-03T14:19:29;96340.06;;;9.74;51.04
10476;BME280;26166;48.264;11.436;2023-03-03T14:29:13;96331.22;;;9.75;51.24
10476;BME280;26166;48.264;11.436;2023-03-03T14:32:19;96337.28;;;9.75;50.90
10476;BME280;26166;48.264;11.436;2023-03-03T14:35:20;96338.94;;;9.76;50.87
10476;BME280;26166;48.264;11.436;2023-03-03T14:38:25;96336.31;;;9.76;50.98
10476;BME280;26166;48.264;11.436;2023-03-03T14:41:39;96334.50;;;9.77;51.10
10476;BME280;26166;48.264;11.436;2023-03-03T14:44:52;96329.25;;;9.77;50.91
10476;BME280;26166;48.264;11.436;2023-03-03T14:47:53;96330.06;;;9.77;51.08
10476;BME280;26166;48.264;11.436;2023-03-03T14:50:57;96336.13;;;9.78;51.16
10476;BME280;26166;48.264;11.436;2023-03-03T14:54:05;96331.88;;;9.77;51.11
10476;BME280;26166;48.264;11.436;2023-03-03T15:03:27;96335.00;;;9.80;51.34
10476;BME280;26166;48.264;11.436;2023-03-03T15:09:46;96338.47;;;9.89;51.04
10476;BME280;26166;48.264;11.436;2023-03-03T15:12:47;96342.25;;;9.95;50.83
10476;BME280;26166;48.264;11.436;2023-03-03T15:19:15;96345.22;;;10.00;50.97
10476;BME280;26166;48.264;11.436;2023-03-03T15:34:53;96345.41;;;10.06;50.98
10476;BME280;26166;48.264;11.436;2023-03-03T15:38:02;96341.28;;;10.04;50.85
10476;BME280;26166;48.264;11.436;2023-03-03T15:44:05;96348.84;;;10.07;50.72
10476;BME280;26166;48.264;11.436;2023-03-03T15:47:20;96346.22;;;10.07;50.75
10476;BME280;26166;48.264;11.436;2023-03-03T15:56:57;96347.34;;;10.04;50.82
10476;BME280;26166;48.264;11.436;2023-03-03T16:03:12;96346.22;;;10.07;50.63
10476;BME280;26166;48.264;11.436;2023-03-03T16:06:18;96347.84;;;10.08;50.56
10476;BME280;26166;48.264;11.436;2023-03-03T16:09:31;96346.06;;;10.08;50.65
10476;BME280;26166;48.264;11.436;2023-03-03T16:15:54;96352.13;;;10.09;50.52
10476;BME280;26166;48.264;11.436;2023-03-03T16:28:58;96359.19;;;10.08;50.73
10476;BME280;26166;48.264;11.436;2023-03-03T16:32:16;96354.75;;;10.09;50.95
10476;BME280;26166;48.264;11.436;2023-03-03T16:35:22;96358.34;;;10.08;50.74
10476;BME280;26166;48.264;11.436;2023-03-03T16:38:26;96358.34;;;10.08;50.90
10476;BME280;26166;48.264;11.436;2023-03-03T16:44:53;96367.22;;;10.07;51.13
10476;BME280;26166;48.264;11.436;2023-03-03T16:57:24;96382.00;;;10.16;50.92
10476;BME280;26166;48.264;11.436;2023-03-03T17:00:27;96385.31;;;10.18;50.86
10476;BME280;26166;48.264;11.436;2023-03-03T17:03:39;96388.56;;;10.20;50.55
10476;BME280;26166;48.264;11.436;2023-03-03T17:06:59;96389.22;;;10.22;50.50
10476;BME280;26166;48.264;11.436;2023-03-03T17:10:16;96392.56;;;10.24;50.53
10476;BME280;26166;48.264;11.436;2023-03-03T17:24:01;96398.44;;;10.26;50.38
10476;BME280;26166;48.264;11.436;2023-03-03T17:43:28;96415.88;;;10.27;50.27
10476;BME280;26166;48.264;11.436;2023-03-03T17:46:38;96420.28;;;10.27;50.41
10476;BME280;26166;48.264;11.436;2023-03-03T17:59:23;96432.75;;;10.25;50.09
10476;BME280;26166;48.264;11.436;2023-03-03T18:18:16;96446.97;;;10.22;50.37
10476;BME280;26166;48.264;11.436;2023-03-03T18:21:21;96451.41;;;10.22;50.38
10476;BME280;26166;48.264;11.436;2023-03-03T18:30:27;96453.38;;;10.20;50.36
10476;BME280;26166;48.264;11.436;2023-03-03T18:43:38;96466.69;;;10.18;50.15
10476;BME280;26166;48.264;11.436;2023-03-03T18:56:10;96474.88;;;10.15;50.52
10476;BME280;26166;48.264;11.436;2023-03-03T19:02:36;96475.00;;;10.14;50.51
10476;BME280;26166;48.264;11.436;2023-03-03T19:05:45;96481.25;;;10.13;50.28
10476;BME280;26166;48.264;11.436;2023-03-03T19:08:53;96483.03;;;10.12;50.42
10476;BME280;26166;48.264;11.436;2023-03-03T19:11:55;96479.44;;;10.13;50.51
10476;BME280;26166;48.264;11.436;2023-03-03T19:14:55;96485.03;;;10.10;50.38
10476;BME280;26166;48.264;11.436;2023-03-03T19:18:00;96485.97;;;10.09;50.25
10476;BME280;26166;48.264;11.436;2023-03-03T19:27:25;96486.44;;;10.04;50.30
10476;BME280;26166;48.264;11.436;2023-03-03T19:47:08;96488.44;;;10.02;50.09
10476;BME280;26166;48.264;11.436;2023-03-03T19:53:22;96491.06;;;10.02;50.17
10476;BME280;26166;48.264;11.436;2023-03-03T19:59:52;96497.41;;;10.00;49.79
10476;BME280;26166;48.264;11.436;2023-03-03T20:10:07;96504.81;;;9.96;49.88
10476;BME280;26166;48.264;11.436;2023-03-03T20:12:48;96512.00;;;9.94;50.07
10476;BME280;26166;48.264;11.436;2023-03-03T20:22:37;96510.38;;;9.93;49.92
10476;BME280;26166;48.264;11.436;2023-03-03T20:25:52;96506.91;;;9.93;49.72
10476;BME280;26166;48.264;11.436;2023-03-03T20:51:04;96517.66;;;9.81;50.07
10476;BME280;26166;48.264;11.436;2023-03-03T20:54:14;96520.16;;;9.83;49.94
10476;BME280;26166;48.264;11.436;2023-03-03T21:00:24;96524.56;;;9.82;49.75
10476;BME280;26166;48.264;11.436;2023-03-03T21:03:31;96518.50;;;9.82;49.76
10476;BME280;26166;48.264;11.436;2023-03-03T21:06:37;96523.91;;;9.80;49.80
10476;BME280;26166;48.264;11.436;2023-03-03T21:09:39;96522.41;;;9.78;49.84
10476;BME280;26166;48.264;11.436;2023-03-03T21:12:39;96520.63;;;9.78;49.68
10476;BME280;26166;48.264;11.436;2023-03-03T21:15:40;96518.13;;;9.77;49.79
10476;BME280;26166;48.264;11.436;2023-03-03T21:18:40;96520.91;;;9.75;50.10
10476;BME280;26166;48.264;11.436;2023-03-03T21:21:41;96518.44;;;9.74;49.70
10476;BME280;26166;48.264;11.436;2023-03-03T21:24:56;96522.56;;;9.76;49.64
10476;BME280;26166;48.264;11.436;2023-03-03T21:34:17;96531.72;;;9.72;49.84
10476;BME280;26166;48.264;11.436;2023-03-03T21:37:40;96530.91;;;9.72;49.88
10476;BME280;26166;48.264;11.436;2023-03-03T21:40:37;96534.34;;;9.72;49.80
10476;BME280;26166;48.264;11.436;2023-03-03T21:46:38;96535.63;;;9.68;49.86
10476;BME280;26166;48.264;11.436;2023-03-03T21:49:41;96539.06;;;9.69;49.91
10476;BME280;26166;48.264;11.436;2023-03-03T21:52:42;96536.44;;;9.69;49.59
10476;BME280;26166;48.264;11.436;2023-03-03T21:55:42;96535.63;;;9.68;49.86
10476;BME280;26166;48.264;11.436;2023-03-03T21:58:47;96535.94;;;9.65;49.84
10476;BME280;26166;48.264;11.436;2023-03-03T22:01:47;96529.19;;;9.63;49.89
10476;BME280;26166;48.264;11.436;2023-03-03T22:04:48;96529.03;;;9.64;49.58
10476;BME280;26166;48.264;11.436;2023-03-03T22:07:48;96533.63;;;9.62;49.56
10476;BME280;26166;48.264;11.436;2023-03-03T22:10:49;96534.28;;;9.64;49.63
10476;BME280;26166;48.264;11.436;2023-03-03T22:13:55;96534.28;;;9.64;49.85
10476;BME280;26166;48.264;11.436;2023-03-03T22:16:55;96542.00;;;9.66;49.76
10476;BME280;26166;48.264;11.436;2023-03-03T22:19:56;96541.19;;;9.65;49.85
10476;BME280;26166;48.264;11.436;2023-03-03T22:22:56;96541.84;;;9.67;49.72
10476;BME280;26166;48.264;11.436;2023-03-03T22:25:56;96541.84;;;9.67;49.50
10476;BME280;26166;48.264;11.436;2023-03-03T22:28:56;96544.31;;;9.69;49.43